sensor_id;sensor_type;location;lat;lon;timestamp;P1;durP1;ratioP1;P2;durP2;ratioP2
74371;SDS011;62885;51.374;6.170;2022-11-15T00:02:04;12.65;;;6.90;;
74371;SDS011;62885;51.374;6.170;2022-11-15T00:04:29;11.43;;;6.10;;
74371;SDS011;62885;51.374;6.170;2022-11-15T00:06:55;12.52;;;7.00;;
74371;SDS011;62885;51.374;6.170;2022-11-15T00:09:20;13.57;;;6.55;;
74371;SDS011;62885;51.374;6.170;2022-11-15T00:11:45;13.00;;;6.70;;
74371;SDS011;62885;51.374;6.170;2022-11-15T00:14:11;14.68;;;8.15;;
74371;SDS011;62885;51.374;6.170;2022-11-15T00:16:36;11.32;;;6.15;;
74371;SDS011;62885;51.374;6.170;2022-11-15T00:19:01;13.73;;;7.15;;
74371;SDS011;62885;51.374;6.170;2022-11-15T00:21:27;12.98;;;7.70;;
74371;SDS011;62885;51.374;6.170;2022-11-15T00:23:52;13.10;;;6.63;;
74371;SDS011;62885;51.374;6.170;2022-11-15T00:26:18;13.75;;;7.30;;
74371;SDS011;62885;51.374;6.170;2022-11-15T00:28:43;14.90;;;7.28;;
74371;SDS011;62885;51.374;6.170;2022-11-15T00:31:10;12.52;;;7.10;;
74371;SDS011;62885;51.374;6.170;2022-11-15T00:33:37;13.13;;;6.88;;
74371;SDS011;62885;51.374;6.170;2022-11-15T00:36:03;12.43;;;6.90;;
74371;SDS011;62885;51.374;6.170;2022-11-15T00:38:32;12.68;;;6.80;;
74371;SDS011;62885;51.374;6.170;2022-11-15T00:40:58;14.18;;;6.93;;
74371;SDS011;62885;51.374;6.170;2022-11-15T00:43:24;16.65;;;6.45;;
74371;SDS011;62885;51.374;6.170;2022-11-15T00:45:49;12.05;;;7.00;;
74371;SDS011;62885;51.374;6.170;2022-11-15T00:48:15;12.15;;;6.60;;
74371;SDS011;62885;51.374;6.170;2022-11-15T00:50:40;13.50;;;7.70;;
74371;SDS011;62885;51.374;6.170;2022-11-15T00:53:05;14.77;;;7.37;;
74371;SDS011;62885;51.374;6.170;2022-11-15T00:55:31;12.77;;;6.65;;
74371;SDS011;62885;51.374;6.170;2022-11-15T00:57:56;11.82;;;5.50;;
74371;SDS011;62885;51.374;6.170;2022-11-15T01:00:21;13.48;;;7.07;;
74371;SDS011;62885;51.374;6.170;2022-11-15T01:02:47;14.13;;;7.50;;
74371;SDS011;62885;51.374;6.170;2022-11-15T01:05:12;14.50;;;7.20;;
74371;SDS011;62885;51.374;6.170;2022-11-15T01:07:37;12.32;;;6.90;;
74371;SDS011;62885;51.374;6.170;2022-11-15T01:10:03;12.80;;;6.75;;
74371;SDS011;62885;51.374;6.170;2022-11-15T01:12:29;11.50;;;6.22;;
74371;SDS011;62885;51.374;6.170;2022-11-15T01:14:54;11.60;;;6.18;;
74371;SDS011;62885;51.374;6.170;2022-11-15T01:17:19;11.75;;;6.85;;
74371;SDS011;62885;51.374;6.170;2022-11-15T01:19:45;12.05;;;6.57;;
74371;SDS011;62885;51.374;6.170;2022-11-15T01:22:10;14.95;;;6.25;;
74371;SDS011;62885;51.374;6.170;2022-11-15T01:24:35;13.23;;;7.07;;
74371;SDS011;62885;51.374;6.170;2022-11-15T01:27:01;14.10;;;6.47;;
74371;SDS011;62885;51.374;6.170;2022-11-15T01:29:26;12.88;;;7.05;;
74371;SDS011;62885;51.374;6.170;2022-11-15T01:31:52;14.77;;;7.43;;
74371;SDS011;62885;51.374;6.170;2022-11-15T01:34:18;15.27;;;6.70;;
74371;SDS011;62885;51.374;6.170;2022-11-15T01:36:44;12.75;;;6.85;;
74371;SDS011;62885;51.374;6.170;2022-11-15T01:39:09;12.48;;;7.05;;
74371;SDS011;62885;51.374;6.170;2022-11-15T01:41:34;11.98;;;7.05;;
74371;SDS011;62885;51.374;6.170;2022-11-15T01:46:56;11.65;;;6.60;;
74371;SDS011;62885;51.374;6.170;2022-11-15T01:49:24;11.45;;;6.57;;
74371;SDS011;62885;51.374;6.170;2022-11-15T01:51:52;12.38;;;6.47;;
74371;SDS011;62885;51.374;6.170;2022-11-15T01:54:19;12.57;;;6.93;;
74371;SDS011;62885;51.374;6.170;2022-11-15T01:56:47;12.25;;;7.28;;
74371;SDS011;62885;51.374;6.170;2022-11-15T01:59:17;14.48;;;7.85;;
74371;SDS011;62885;51.374;6.170;2022-11-15T02:01:43;9.75;;;5.85;;
74371;SDS011;62885;51.374;6.170;2022-11-15T02:04:11;12.50;;;6.97;;
74371;SDS011;62885;51.374;6.170;2022-11-15T02:06:39;12.32;;;6.43;;
74371;SDS011;62885;51.374;6.170;2022-11-15T02:09:06;11.35;;;6.97;;
74371;SDS011;62885;51.374;6.170;2022-11-15T02:11:31;11.93;;;6.82;;
74371;SDS011;62885;51.374;6.170;2022-11-15T02:13:57;13.73;;;7.45;;
74371;SDS011;62885;51.374;6.170;2022-11-15T02:21:29;11.20;;;6.78;;
74371;SDS011;62885;51.374;6.170;2022-11-15T02:29:35;15.27;;;7.45;;
74371;SDS011;62885;51.374;6.170;2022-11-15T02:35:26;11.93;;;6.45;;
74371;SDS011;62885;51.374;6.170;2022-11-15T02:38:08;11.93;;;6.07;;
74371;SDS011;62885;51.374;6.170;2022-11-15T02:40:59;12.00;;;6.15;;
74371;SDS011;62885;51.374;6.170;2022-11-15T02:43:33;10.93;;;6.50;;
74371;SDS011;62885;51.374;6.170;2022-11-15T02:46:24;11.18;;;7.57;;
74371;SDS011;62885;51.374;6.170;2022-11-15T02:49:15;13.38;;;6.53;;
74371;SDS011;62885;51.374;6.170;2022-11-15T02:51:41;10.65;;;6.30;;
74371;SDS011;62885;51.374;6.170;2022-11-15T02:54:12;10.82;;;6.15;;
74371;SDS011;62885;51.374;6.170;2022-11-15T02:56:42;9.98;;;6.20;;
74371;SDS011;62885;51.374;6.170;2022-11-15T02:59:18;12.18;;;6.35;;
74371;SDS011;62885;51.374;6.170;2022-11-15T03:10:09;12.77;;;5.70;;
74371;SDS011;62885;51.374;6.170;2022-11-15T03:12:47;14.68;;;6.57;;
74371;SDS011;62885;51.374;6.170;2022-11-15T03:21:04;11.18;;;5.45;;
74371;SDS011;62885;51.374;6.170;2022-11-15T03:23:33;12.52;;;5.97;;
74371;SDS011;62885;51.374;6.170;2022-11-15T03:26:01;11.65;;;5.63;;
74371;SDS011;62885;51.374;6.170;2022-11-15T03:29:11;15.70;;;6.35;;
74371;SDS011;62885;51.374;6.170;2022-11-15T03:31:31;12.52;;;6.30;;
74371;SDS011;62885;51.374;6.170;2022-11-15T03:34:12;14.13;;;6.75;;
74371;SDS011;62885;51.374;6.170;2022-11-15T03:36:47;12.55;;;6.95;;
74371;SDS011;62885;51.374;6.170;2022-11-15T03:39:14;12.18;;;6.03;;
74371;SDS011;62885;51.374;6.170;2022-11-15T03:41:47;10.90;;;6.32;;
74371;SDS011;62885;51.374;6.170;2022-11-15T03:44:16;10.30;;;5.88;;
74371;SDS011;62885;51.374;6.170;2022-11-15T03:47:16;12.02;;;6.25;;
74371;SDS011;62885;51.374;6.170;2022-11-15T03:49:44;11.18;;;6.53;;
74371;SDS011;62885;51.374;6.170;2022-11-15T03:52:16;10.93;;;6.60;;
74371;SDS011;62885;51.374;6.170;2022-11-15T03:54:53;10.48;;;6.82;;
74371;SDS011;62885;51.374;6.170;2022-11-15T03:57:21;11.27;;;6.40;;
74371;SDS011;62885;51.374;6.170;2022-11-15T03:59:46;11.77;;;6.38;;
74371;SDS011;62885;51.374;6.170;2022-11-15T04:02:12;12.35;;;6.97;;
74371;SDS011;62885;51.374;6.170;2022-11-15T04:04:37;12.02;;;6.65;;
74371;SDS011;62885;51.374;6.170;2022-11-15T04:07:02;11.23;;;6.03;;
74371;SDS011;62885;51.374;6.170;2022-11-15T04:09:28;11.32;;;6.20;;
74371;SDS011;62885;51.374;6.170;2022-11-15T04:11:53;11.63;;;6.10;;
74371;SDS011;62885;51.374;6.170;2022-11-15T04:14:19;12.43;;;6.13;;
74371;SDS011;62885;51.374;6.170;2022-11-15T04:16:44;10.90;;;5.40;;
74371;SDS011;62885;51.374;6.170;2022-11-15T04:19:09;11.33;;;5.27;;
74371;SDS011;62885;51.374;6.170;2022-11-15T04:21:53;11.85;;;5.50;;
74371;SDS011;62885;51.374;6.170;2022-11-15T04:24:37;13.52;;;5.38;;
74371;SDS011;62885;51.374;6.170;2022-11-15T04:27:02;9.20;;;5.68;;
74371;SDS011;62885;51.374;6.170;2022-11-15T04:29:28;10.48;;;5.93;;
74371;SDS011;62885;51.374;6.170;2022-11-15T04:31:59;10.20;;;5.72;;
74371;SDS011;62885;51.374;6.170;2022-11-15T04:34:24;9.38;;;5.55;;
74371;SDS011;62885;51.374;6.170;2022-11-15T04:36:50;9.68;;;5.15;;
74371;SDS011;62885;51.374;6.170;2022-11-15T04:39:33;11.10;;;4.85;;
74371;SDS011;62885;51.374;6.170;2022-11-15T04:41:58;10.48;;;4.97;;
74371;SDS011;62885;51.374;6.170;2022-11-15T04:44:24;8.80;;;4.97;;
74371;SDS011;62885;51.374;6.170;2022-11-15T04:46:49;9.57;;;4.47;;
74371;SDS011;62885;51.374;6.170;2022-11-15T04:49:14;12.00;;;6.00;;
74371;SDS011;62885;51.374;6.170;2022-11-15T04:51:40;9.40;;;4.68;;
74371;SDS011;62885;51.374;6.170;2022-11-15T04:54:05;10.27;;;4.68;;
74371;SDS011;62885;51.374;6.170;2022-11-15T04:56:31;9.13;;;5.13;;
74371;SDS011;62885;51.374;6.170;2022-11-15T04:58:56;10.98;;;5.45;;
74371;SDS011;62885;51.374;6.170;2022-11-15T05:01:21;12.00;;;5.33;;
74371;SDS011;62885;51.374;6.170;2022-11-15T05:03:46;9.45;;;5.30;;
74371;SDS011;62885;51.374;6.170;2022-11-15T05:06:30;9.40;;;5.13;;
74371;SDS011;62885;51.374;6.170;2022-11-15T05:08:56;8.38;;;5.38;;
74371;SDS011;62885;51.374;6.170;2022-11-15T05:11:22;10.38;;;4.85;;
74371;SDS011;62885;51.374;6.170;2022-11-15T05:13:48;9.45;;;4.82;;
74371;SDS011;62885;51.374;6.170;2022-11-15T05:16:13;10.18;;;5.63;;
74371;SDS011;62885;51.374;6.170;2022-11-15T05:18:39;11.98;;;5.32;;
74371;SDS011;62885;51.374;6.170;2022-11-15T05:21:06;8.43;;;4.90;;
74371;SDS011;62885;51.374;6.170;2022-11-15T05:23:33;8.80;;;5.13;;
74371;SDS011;62885;51.374;6.170;2022-11-15T05:25:59;10.00;;;5.40;;
74371;SDS011;62885;51.374;6.170;2022-11-15T05:28:25;9.57;;;5.55;;
74371;SDS011;62885;51.374;6.170;2022-11-15T05:30:50;8.55;;;5.05;;
74371;SDS011;62885;51.374;6.170;2022-11-15T05:33:16;10.60;;;5.55;;
74371;SDS011;62885;51.374;6.170;2022-11-15T05:35:42;9.05;;;5.53;;
74371;SDS011;62885;51.374;6.170;2022-11-15T05:38:15;10.35;;;5.30;;
74371;SDS011;62885;51.374;6.170;2022-11-15T05:40:41;10.10;;;5.72;;
74371;SDS011;62885;51.374;6.170;2022-11-15T05:43:06;8.40;;;4.68;;
74371;SDS011;62885;51.374;6.170;2022-11-15T05:45:32;9.43;;;5.13;;
74371;SDS011;62885;51.374;6.170;2022-11-15T05:47:58;8.40;;;4.50;;
74371;SDS011;62885;51.374;6.170;2022-11-15T05:50:28;9.75;;;5.13;;
74371;SDS011;62885;51.374;6.170;2022-11-15T05:52:54;12.95;;;5.22;;
74371;SDS011;62885;51.374;6.170;2022-11-15T05:55:20;11.60;;;4.75;;
74371;SDS011;62885;51.374;6.170;2022-11-15T05:57:45;10.15;;;4.95;;
74371;SDS011;62885;51.374;6.170;2022-11-15T06:00:11;8.70;;;5.18;;
74371;SDS011;62885;51.374;6.170;2022-11-15T06:02:37;10.27;;;4.90;;
74371;SDS011;62885;51.374;6.170;2022-11-15T06:05:02;9.32;;;5.25;;
74371;SDS011;62885;51.374;6.170;2022-11-15T06:07:29;10.30;;;5.30;;
74371;SDS011;62885;51.374;6.170;2022-11-15T06:09:55;7.72;;;4.43;;
74371;SDS011;62885;51.374;6.170;2022-11-15T06:12:20;12.63;;;5.30;;
74371;SDS011;62885;51.374;6.170;2022-11-15T06:14:45;9.20;;;5.10;;
74371;SDS011;62885;51.374;6.170;2022-11-15T06:17:10;11.60;;;5.53;;
74371;SDS011;62885;51.374;6.170;2022-11-15T06:19:36;11.02;;;4.88;;
74371;SDS011;62885;51.374;6.170;2022-11-15T06:22:01;8.73;;;4.75;;
74371;SDS011;62885;51.374;6.170;2022-11-15T06:24:27;8.57;;;4.88;;
74371;SDS011;62885;51.374;6.170;2022-11-15T06:26:52;8.40;;;5.05;;
74371;SDS011;62885;51.374;6.170;2022-11-15T06:29:17;9.80;;;4.93;;
74371;SDS011;62885;51.374;6.170;2022-11-15T06:31:43;9.13;;;4.55;;
74371;SDS011;62885;51.374;6.170;2022-11-15T06:34:08;8.57;;;4.70;;
74371;SDS011;62885;51.374;6.170;2022-11-15T06:36:34;9.73;;;4.68;;
74371;SDS011;62885;51.374;6.170;2022-11-15T06:39:01;9.48;;;4.32;;
74371;SDS011;62885;51.374;6.170;2022-11-15T06:41:33;8.52;;;4.20;;
74371;SDS011;62885;51.374;6.170;2022-11-15T06:43:59;9.00;;;4.47;;
74371;SDS011;62885;51.374;6.170;2022-11-15T06:46:24;8.25;;;4.72;;
74371;SDS011;62885;51.374;6.170;2022-11-15T06:48:50;10.48;;;4.65;;
74371;SDS011;62885;51.374;6.170;2022-11-15T06:51:16;10.43;;;4.45;;
74371;SDS011;62885;51.374;6.170;2022-11-15T06:53:42;8.27;;;3.85;;
74371;SDS011;62885;51.374;6.170;2022-11-15T06:56:07;8.43;;;4.30;;
74371;SDS011;62885;51.374;6.170;2022-11-15T06:58:33;8.00;;;4.22;;
74371;SDS011;62885;51.374;6.170;2022-11-15T07:01:10;7.32;;;3.80;;
74371;SDS011;62885;51.374;6.170;2022-11-15T07:03:37;7.57;;;3.47;;
74371;SDS011;62885;51.374;6.170;2022-11-15T07:06:04;7.13;;;3.55;;
74371;SDS011;62885;51.374;6.170;2022-11-15T07:08:29;7.00;;;3.45;;
74371;SDS011;62885;51.374;6.170;2022-11-15T07:10:58;8.05;;;3.08;;
74371;SDS011;62885;51.374;6.170;2022-11-15T07:13:25;4.53;;;2.78;;
74371;SDS011;62885;51.374;6.170;2022-11-15T07:15:51;7.65;;;3.22;;
74371;SDS011;62885;51.374;6.170;2022-11-15T07:18:16;4.93;;;2.88;;
74371;SDS011;62885;51.374;6.170;2022-11-15T07:20:42;5.65;;;2.40;;
74371;SDS011;62885;51.374;6.170;2022-11-15T07:23:07;6.13;;;2.72;;
74371;SDS011;62885;51.374;6.170;2022-11-15T07:25:32;5.60;;;2.70;;
74371;SDS011;62885;51.374;6.170;2022-11-15T07:27:58;5.50;;;2.65;;
74371;SDS011;62885;51.374;6.170;2022-11-15T07:30:24;9.63;;;2.45;;
74371;SDS011;62885;51.374;6.170;2022-11-15T07:32:54;5.53;;;2.65;;
74371;SDS011;62885;51.374;6.170;2022-11-15T07:35:24;5.75;;;2.55;;
74371;SDS011;62885;51.374;6.170;2022-11-15T07:37:57;4.78;;;2.63;;
74371;SDS011;62885;51.374;6.170;2022-11-15T07:40:27;7.63;;;3.53;;
74371;SDS011;62885;51.374;6.170;2022-11-15T07:43:00;5.88;;;2.50;;
74371;SDS011;62885;51.374;6.170;2022-11-15T07:45:27;6.70;;;2.30;;
74371;SDS011;62885;51.374;6.170;2022-11-15T07:47:52;5.40;;;2.40;;
74371;SDS011;62885;51.374;6.170;2022-11-15T07:50:18;4.18;;;1.98;;
74371;SDS011;62885;51.374;6.170;2022-11-15T07:52:44;4.90;;;2.10;;
74371;SDS011;62885;51.374;6.170;2022-11-15T07:55:10;5.25;;;1.67;;
74371;SDS011;62885;51.374;6.170;2022-11-15T07:57:36;7.32;;;2.03;;
74371;SDS011;62885;51.374;6.170;2022-11-15T08:00:01;5.60;;;2.20;;
74371;SDS011;62885;51.374;6.170;2022-11-15T08:02:28;5.03;;;2.17;;
74371;SDS011;62885;51.374;6.170;2022-11-15T08:04:53;5.68;;;2.55;;
74371;SDS011;62885;51.374;6.170;2022-11-15T08:07:18;5.72;;;2.65;;
74371;SDS011;62885;51.374;6.170;2022-11-15T08:09:44;6.60;;;2.20;;
74371;SDS011;62885;51.374;6.170;2022-11-15T08:12:09;6.53;;;2.53;;
74371;SDS011;62885;51.374;6.170;2022-11-15T08:14:35;6.57;;;2.35;;
74371;SDS011;62885;51.374;6.170;2022-11-15T08:17:00;4.65;;;2.05;;
74371;SDS011;62885;51.374;6.170;2022-11-15T08:19:26;4.35;;;2.25;;
74371;SDS011;62885;51.374;6.170;2022-11-15T08:21:51;3.80;;;1.80;;
74371;SDS011;62885;51.374;6.170;2022-11-15T08:24:16;5.05;;;2.38;;
74371;SDS011;62885;51.374;6.170;2022-11-15T08:26:42;4.43;;;1.88;;
74371;SDS011;62885;51.374;6.170;2022-11-15T08:29:07;18.77;;;2.75;;
74371;SDS011;62885;51.374;6.170;2022-11-15T08:31:33;4.38;;;1.98;;
74371;SDS011;62885;51.374;6.170;2022-11-15T08:33:59;4.35;;;2.00;;
74371;SDS011;62885;51.374;6.170;2022-11-15T08:36:25;5.88;;;2.47;;
74371;SDS011;62885;51.374;6.170;2022-11-15T08:38:50;5.55;;;2.28;;
74371;SDS011;62885;51.374;6.170;2022-11-15T08:41:18;5.18;;;2.00;;
74371;SDS011;62885;51.374;6.170;2022-11-15T08:43:53;2.92;;;1.67;;
74371;SDS011;62885;51.374;6.170;2022-11-15T08:46:18;5.13;;;1.77;;
74371;SDS011;62885;51.374;6.170;2022-11-15T08:48:44;4.13;;;1.77;;
74371;SDS011;62885;51.374;6.170;2022-11-15T08:51:09;7.25;;;2.85;;
74371;SDS011;62885;51.374;6.170;2022-11-15T08:53:34;4.82;;;1.92;;
74371;SDS011;62885;51.374;6.170;2022-11-15T08:56:00;4.85;;;1.73;;
74371;SDS011;62885;51.374;6.170;2022-11-15T08:58:25;5.63;;;1.70;;
74371;SDS011;62885;51.374;6.170;2022-11-15T09:00:51;4.82;;;1.40;;
74371;SDS011;62885;51.374;6.170;2022-11-15T09:03:16;3.40;;;1.10;;
74371;SDS011;62885;51.374;6.170;2022-11-15T09:05:41;3.60;;;1.50;;
74371;SDS011;62885;51.374;6.170;2022-11-15T09:08:06;4.25;;;1.70;;
74371;SDS011;62885;51.374;6.170;2022-11-15T09:10:32;5.90;;;1.45;;
74371;SDS011;62885;51.374;6.170;2022-11-15T09:12:57;3.75;;;1.20;;
74371;SDS011;62885;51.374;6.170;2022-11-15T09:15:22;2.35;;;1.15;;
74371;SDS011;62885;51.374;6.170;2022-11-15T09:17:48;2.83;;;1.30;;
74371;SDS011;62885;51.374;6.170;2022-11-15T09:20:13;4.43;;;1.17;;
74371;SDS011;62885;51.374;6.170;2022-11-15T09:22:39;1.65;;;1.00;;
74371;SDS011;62885;51.374;6.170;2022-11-15T09:25:05;3.50;;;1.10;;
74371;SDS011;62885;51.374;6.170;2022-11-15T09:27:31;2.80;;;1.00;;
74371;SDS011;62885;51.374;6.170;2022-11-15T09:29:57;2.08;;;0.90;;
74371;SDS011;62885;51.374;6.170;2022-11-15T09:32:22;2.35;;;0.93;;
74371;SDS011;62885;51.374;6.170;2022-11-15T09:34:48;0.98;;;0.73;;
74371;SDS011;62885;51.374;6.170;2022-11-15T09:37:16;1.70;;;0.80;;
74371;SDS011;62885;51.374;6.170;2022-11-15T09:39:42;3.33;;;0.60;;
74371;SDS011;62885;51.374;6.170;2022-11-15T09:44:59;2.45;;;0.80;;
74371;SDS011;62885;51.374;6.170;2022-11-15T09:50:09;2.08;;;0.75;;
74371;SDS011;62885;51.374;6.170;2022-11-15T09:52:37;1.42;;;0.85;;
74371;SDS011;62885;51.374;6.170;2022-11-15T09:55:07;1.52;;;1.00;;
74371;SDS011;62885;51.374;6.170;2022-11-15T09:57:39;5.80;;;1.13;;
74371;SDS011;62885;51.374;6.170;2022-11-15T10:00:20;8.80;;;1.00;;
74371;SDS011;62885;51.374;6.170;2022-11-15T10:05:37;2.22;;;0.60;;
74371;SDS011;62885;51.374;6.170;2022-11-15T10:11:09;2.28;;;0.80;;
74371;SDS011;62885;51.374;6.170;2022-11-15T10:13:37;2.97;;;0.60;;
74371;SDS011;62885;51.374;6.170;2022-11-15T10:16:19;1.15;;;0.75;;
74371;SDS011;62885;51.374;6.170;2022-11-15T10:24:52;0.75;;;0.60;;
74371;SDS011;62885;51.374;6.170;2022-11-15T10:27:36;2.75;;;0.63;;
74371;SDS011;62885;51.374;6.170;2022-11-15T10:30:01;1.90;;;0.70;;
74371;SDS011;62885;51.374;6.170;2022-11-15T10:32:29;2.13;;;0.90;;
74371;SDS011;62885;51.374;6.170;2022-11-15T10:34:57;2.05;;;0.90;;
74371;SDS011;62885;51.374;6.170;2022-11-15T10:37:29;5.10;;;1.33;;
74371;SDS011;62885;51.374;6.170;2022-11-15T10:40:06;3.35;;;0.80;;
74371;SDS011;62885;51.374;6.170;2022-11-15T10:43:06;1.67;;;0.75;;
74371;SDS011;62885;51.374;6.170;2022-11-15T10:45:39;3.75;;;0.75;;
74371;SDS011;62885;51.374;6.170;2022-11-15T10:50:45;2.10;;;1.00;;
74371;SDS011;62885;51.374;6.170;2022-11-15T10:53:18;3.78;;;0.95;;
74371;SDS011;62885;51.374;6.170;2022-11-15T10:55:48;1.35;;;0.80;;
74371;SDS011;62885;51.374;6.170;2022-11-15T10:58:37;2.80;;;0.75;;
74371;SDS011;62885;51.374;6.170;2022-11-15T11:01:10;5.18;;;0.82;;
74371;SDS011;62885;51.374;6.170;2022-11-15T11:03:37;2.70;;;0.88;;
74371;SDS011;62885;51.374;6.170;2022-11-15T11:06:09;3.40;;;0.82;;
74371;SDS011;62885;51.374;6.170;2022-11-15T11:08:36;3.00;;;0.77;;
74371;SDS011;62885;51.374;6.170;2022-11-15T11:11:03;1.77;;;0.75;;
74371;SDS011;62885;51.374;6.170;2022-11-15T11:13:36;4.07;;;1.20;;
74371;SDS011;62885;51.374;6.170;2022-11-15T11:18:38;1.13;;;0.70;;
74371;SDS011;62885;51.374;6.170;2022-11-15T11:35:23;1.58;;;0.85;;
74371;SDS011;62885;51.374;6.170;2022-11-15T11:37:54;1.83;;;0.77;;
74371;SDS011;62885;51.374;6.170;2022-11-15T11:40:38;1.63;;;0.80;;
74371;SDS011;62885;51.374;6.170;2022-11-15T11:45:49;2.38;;;0.77;;
74371;SDS011;62885;51.374;6.170;2022-11-15T11:48:47;1.55;;;0.73;;
74371;SDS011;62885;51.374;6.170;2022-11-15T11:53:57;2.17;;;0.75;;
74371;SDS011;62885;51.374;6.170;2022-11-15T11:56:29;2.92;;;1.00;;
74371;SDS011;62885;51.374;6.170;2022-11-15T11:59:02;3.95;;;0.90;;
74371;SDS011;62885;51.374;6.170;2022-11-15T12:01:42;4.35;;;0.90;;
74371;SDS011;62885;51.374;6.170;2022-11-15T12:04:17;2.13;;;0.60;;
74371;SDS011;62885;51.374;6.170;2022-11-15T12:09:23;4.50;;;0.82;;
74371;SDS011;62885;51.374;6.170;2022-11-15T12:14:55;2.85;;;0.82;;
74371;SDS011;62885;51.374;6.170;2022-11-15T12:17:30;0.95;;;0.40;;
74371;SDS011;62885;51.374;6.170;2022-11-15T12:19:57;2.55;;;0.73;;
74371;SDS011;62885;51.374;6.170;2022-11-15T12:22:35;1.80;;;0.55;;
74371;SDS011;62885;51.374;6.170;2022-11-15T12:25:18;1.92;;;0.63;;
74371;SDS011;62885;51.374;6.170;2022-11-15T12:27:52;3.72;;;0.88;;
74371;SDS011;62885;51.374;6.170;2022-11-15T12:30:55;2.13;;;0.90;;
74371;SDS011;62885;51.374;6.170;2022-11-15T12:33:42;1.65;;;0.50;;
74371;SDS011;62885;51.374;6.170;2022-11-15T12:36:29;2.42;;;0.73;;
74371;SDS011;62885;51.374;6.170;2022-11-15T12:39:09;2.47;;;0.68;;
74371;SDS011;62885;51.374;6.170;2022-11-15T12:44:03;3.25;;;0.68;;
74371;SDS011;62885;51.374;6.170;2022-11-15T12:48:55;3.23;;;1.13;;
74371;SDS011;62885;51.374;6.170;2022-11-15T12:52:03;2.28;;;0.75;;
74371;SDS011;62885;51.374;6.170;2022-11-15T12:57:35;5.30;;;0.50;;
74371;SDS011;62885;51.374;6.170;2022-11-15T12:59:56;1.55;;;0.60;;
74371;SDS011;62885;51.374;6.170;2022-11-15T13:22:58;2.92;;;0.75;;
74371;SDS011;62885;51.374;6.170;2022-11-15T13:27:52;5.00;;;0.90;;
74371;SDS011;62885;51.374;6.170;2022-11-15T13:30:23;1.58;;;0.68;;
74371;SDS011;62885;51.374;6.170;2022-11-15T13:32:50;0.30;;;0.30;;
74371;SDS011;62885;51.374;6.170;2022-11-15T13:35:20;1.67;;;0.43;;
74371;SDS011;62885;51.374;6.170;2022-11-15T13:37:48;2.70;;;0.60;;
74371;SDS011;62885;51.374;6.170;2022-11-15T13:42:40;3.88;;;0.77;;
74371;SDS011;62885;51.374;6.170;2022-11-15T13:45:12;5.28;;;0.93;;
74371;SDS011;62885;51.374;6.170;2022-11-15T13:47:40;3.85;;;0.73;;
74371;SDS011;62885;51.374;6.170;2022-11-15T13:50:05;4.13;;;0.70;;
74371;SDS011;62885;51.374;6.170;2022-11-15T13:52:32;2.08;;;0.75;;
74371;SDS011;62885;51.374;6.170;2022-11-15T13:55:01;2.88;;;0.70;;
74371;SDS011;62885;51.374;6.170;2022-11-15T14:02:57;3.10;;;0.52;;
74371;SDS011;62885;51.374;6.170;2022-11-15T14:05:42;4.18;;;1.20;;
74371;SDS011;62885;51.374;6.170;2022-11-15T14:08:21;2.00;;;0.63;;
74371;SDS011;62885;51.374;6.170;2022-11-15T14:10:48;5.53;;;0.75;;
74371;SDS011;62885;51.374;6.170;2022-11-15T14:13:31;3.13;;;0.65;;
74371;SDS011;62885;51.374;6.170;2022-11-15T14:16:16;2.83;;;0.73;;
74371;SDS011;62885;51.374;6.170;2022-11-15T14:18:47;2.75;;;0.68;;
74371;SDS011;62885;51.374;6.170;2022-11-15T14:21:14;3.95;;;0.80;;
74371;SDS011;62885;51.374;6.170;2022-11-15T14:23:40;2.53;;;0.80;;
74371;SDS011;62885;51.374;6.170;2022-11-15T14:26:05;5.18;;;1.15;;
74371;SDS011;62885;51.374;6.170;2022-11-15T14:28:36;3.47;;;0.90;;
74371;SDS011;62885;51.374;6.170;2022-11-15T14:31:06;2.60;;;0.70;;
74371;SDS011;62885;51.374;6.170;2022-11-15T14:33:38;2.53;;;0.75;;
74371;SDS011;62885;51.374;6.170;2022-11-15T14:36:17;7.00;;;1.38;;
74371;SDS011;62885;51.374;6.170;2022-11-15T14:38:44;3.65;;;1.02;;
74371;SDS011;62885;51.374;6.170;2022-11-15T14:41:17;1.67;;;0.73;;
74371;SDS011;62885;51.374;6.170;2022-11-15T14:43:47;4.00;;;1.52;;
74371;SDS011;62885;51.374;6.170;2022-11-15T14:46:13;4.80;;;1.20;;
74371;SDS011;62885;51.374;6.170;2022-11-15T14:48:38;7.30;;;1.60;;
74371;SDS011;62885;51.374;6.170;2022-11-15T14:51:09;5.25;;;1.08;;
74371;SDS011;62885;51.374;6.170;2022-11-15T14:53:36;4.25;;;1.33;;
74371;SDS011;62885;51.374;6.170;2022-11-15T14:56:02;3.63;;;1.13;;
74371;SDS011;62885;51.374;6.170;2022-11-15T14:58:27;2.30;;;1.05;;
74371;SDS011;62885;51.374;6.170;2022-11-15T15:00:52;4.03;;;1.30;;
74371;SDS011;62885;51.374;6.170;2022-11-15T15:03:18;4.43;;;1.13;;
74371;SDS011;62885;51.374;6.170;2022-11-15T15:05:43;5.07;;;1.30;;
74371;SDS011;62885;51.374;6.170;2022-11-15T15:08:09;3.72;;;1.33;;
74371;SDS011;62885;51.374;6.170;2022-11-15T15:10:37;3.90;;;1.13;;
74371;SDS011;62885;51.374;6.170;2022-11-15T15:13:04;3.88;;;1.20;;
74371;SDS011;62885;51.374;6.170;2022-11-15T15:15:34;3.80;;;1.30;;
74371;SDS011;62885;51.374;6.170;2022-11-15T15:18:02;3.00;;;1.10;;
74371;SDS011;62885;51.374;6.170;2022-11-15T15:20:33;6.57;;;0.98;;
74371;SDS011;62885;51.374;6.170;2022-11-15T15:22:59;4.13;;;1.77;;
74371;SDS011;62885;51.374;6.170;2022-11-15T15:25:32;3.90;;;1.13;;
74371;SDS011;62885;51.374;6.170;2022-11-15T15:28:00;4.28;;;0.98;;
74371;SDS011;62885;51.374;6.170;2022-11-15T15:30:26;2.08;;;1.08;;
74371;SDS011;62885;51.374;6.170;2022-11-15T15:32:53;5.75;;;1.65;;
74371;SDS011;62885;51.374;6.170;2022-11-15T15:35:19;3.08;;;1.13;;
74371;SDS011;62885;51.374;6.170;2022-11-15T15:37:45;5.35;;;1.17;;
74371;SDS011;62885;51.374;6.170;2022-11-15T15:40:21;8.23;;;1.52;;
74371;SDS011;62885;51.374;6.170;2022-11-15T15:42:48;4.28;;;1.40;;
74371;SDS011;62885;51.374;6.170;2022-11-15T15:45:14;3.75;;;1.30;;
74371;SDS011;62885;51.374;6.170;2022-11-15T15:47:40;2.10;;;1.13;;
74371;SDS011;62885;51.374;6.170;2022-11-15T15:52:52;3.25;;;1.30;;
74371;SDS011;62885;51.374;6.170;2022-11-15T15:55:19;3.47;;;1.25;;
74371;SDS011;62885;51.374;6.170;2022-11-15T15:57:45;3.63;;;1.42;;
74371;SDS011;62885;51.374;6.170;2022-11-15T16:00:11;5.40;;;1.42;;
74371;SDS011;62885;51.374;6.170;2022-11-15T16:02:37;4.32;;;1.13;;
74371;SDS011;62885;51.374;6.170;2022-11-15T16:05:02;4.22;;;1.58;;
74371;SDS011;62885;51.374;6.170;2022-11-15T16:07:27;6.72;;;1.75;;
74371;SDS011;62885;51.374;6.170;2022-11-15T16:09:54;4.93;;;1.70;;
74371;SDS011;62885;51.374;6.170;2022-11-15T16:12:27;4.80;;;1.75;;
74371;SDS011;62885;51.374;6.170;2022-11-15T16:14:52;5.45;;;2.05;;
74371;SDS011;62885;51.374;6.170;2022-11-15T16:17:18;3.17;;;1.60;;
74371;SDS011;62885;51.374;6.170;2022-11-15T16:19:51;5.63;;;1.55;;
74371;SDS011;62885;51.374;6.170;2022-11-15T16:22:17;5.82;;;1.80;;
74371;SDS011;62885;51.374;6.170;2022-11-15T16:24:42;4.13;;;1.75;;
74371;SDS011;62885;51.374;6.170;2022-11-15T16:27:15;5.75;;;1.85;;
74371;SDS011;62885;51.374;6.170;2022-11-15T16:29:41;7.90;;;2.00;;
74371;SDS011;62885;51.374;6.170;2022-11-15T16:32:15;9.00;;;2.15;;
74371;SDS011;62885;51.374;6.170;2022-11-15T16:34:46;4.97;;;2.10;;
74371;SDS011;62885;51.374;6.170;2022-11-15T16:37:21;6.00;;;2.03;;
74371;SDS011;62885;51.374;6.170;2022-11-15T16:39:47;5.50;;;2.20;;
74371;SDS011;62885;51.374;6.170;2022-11-15T16:42:13;6.57;;;2.10;;
74371;SDS011;62885;51.374;6.170;2022-11-15T16:44:38;7.45;;;2.60;;
74371;SDS011;62885;51.374;6.170;2022-11-15T16:47:03;6.95;;;2.03;;
74371;SDS011;62885;51.374;6.170;2022-11-15T16:49:29;5.80;;;2.67;;
74371;SDS011;62885;51.374;6.170;2022-11-15T16:51:54;6.38;;;2.38;;
74371;SDS011;62885;51.374;6.170;2022-11-15T16:54:20;8.25;;;2.90;;